createdAt,value
2023-12-14T00:02:02.106Z,95.00
2023-12-14T00:04:33.923Z,94.87
2023-12-14T00:07:03.578Z,94.70
2023-12-14T00:09:34.644Z,94.76
2023-12-14T00:12:06.054Z,94.71
2023-12-14T00:14:37.202Z,94.66
2023-12-14T00:17:08.410Z,94.58
2023-12-14T00:19:37.968Z,94.43
2023-12-14T00:22:09.445Z,94.28
2023-12-14T00:24:40.521Z,94.24
2023-12-14T00:27:11.581Z,94.24
2023-12-14T00:29:42.712Z,94.18
2023-12-14T00:32:12.470Z,94.04
2023-12-14T00:34:43.647Z,94.22
2023-12-14T00:37:14.797Z,94.37
2023-12-14T00:39:45.921Z,94.44
2023-12-14T00:42:15.462Z,94.42
2023-12-14T00:44:46.750Z,94.70
2023-12-14T00:47:16.642Z,94.65
2023-12-14T00:49:46.590Z,94.53
2023-12-14T00:52:17.684Z,94.41
2023-12-14T00:54:47.687Z,94.17
2023-12-14T00:57:18.849Z,94.11
2023-12-14T00:59:50.409Z,94.06
2023-12-14T01:02:21.666Z,94.07
2023-12-14T01:04:53.195Z,94.06
2023-12-14T01:07:22.686Z,94.09
2023-12-14T01:09:53.607Z,94.03
2023-12-14T01:12:24.621Z,94.11
2023-12-14T01:14:55.830Z,94.03
2023-12-14T01:17:26.991Z,93.72
2023-12-14T01:19:58.267Z,93.91
2023-12-14T01:22:29.706Z,93.78
2023-12-14T01:25:00.946Z,93.54
2023-12-14T01:27:33.705Z,93.35
2023-12-14T01:30:05.149Z,93.42
2023-12-14T01:32:37.001Z,93.40
2023-12-14T01:35:09.670Z,93.48
2023-12-14T01:37:40.836Z,93.49
2023-12-14T01:40:11.277Z,93.71
2023-12-14T01:42:50.230Z,93.74
2023-12-14T01:45:21.426Z,93.49
2023-12-14T01:47:52.631Z,93.27
2023-12-14T01:50:23.894Z,93.45
2023-12-14T01:52:55.123Z,93.19
2023-12-14T01:55:24.795Z,93.39
2023-12-14T01:57:55.886Z,93.30
2023-12-14T02:00:37.559Z,93.36
2023-12-14T02:03:08.857Z,93.23
2023-12-14T02:05:40.183Z,93.30
2023-12-14T02:08:10.289Z,93.17
2023-12-14T02:10:41.434Z,93.15
2023-12-14T02:13:12.625Z,92.80
2023-12-14T02:15:43.759Z,93.22
2023-12-14T02:18:15.796Z,93.25
2023-12-14T02:20:47.458Z,93.62
2023-12-14T02:23:18.677Z,93.52
2023-12-14T02:25:48.611Z,93.42
2023-12-14T02:28:19.706Z,93.62
2023-12-14T02:30:51.168Z,93.51
2023-12-14T02:33:20.666Z,93.33
2023-12-14T02:35:51.777Z,93.46
2023-12-14T02:38:21.541Z,93.63
2023-12-14T02:40:53.886Z,93.65
2023-12-14T02:43:25.197Z,93.91
2023-12-14T02:46:02.866Z,94.09
2023-12-14T02:48:34.382Z,94.18
2023-12-14T02:51:06.456Z,94.42
2023-12-14T02:53:37.556Z,94.14
2023-12-14T02:56:11.546Z,94.28
2023-12-14T02:58:42.779Z,94.07
2023-12-14T03:01:13.952Z,94.20
2023-12-14T03:03:45.555Z,94.51
2023-12-14T03:06:16.802Z,94.70
2023-12-14T03:08:46.587Z,94.67
2023-12-14T03:11:26.547Z,94.88
2023-12-14T03:13:57.647Z,94.88
2023-12-14T03:16:28.614Z,94.95
2023-12-14T03:18:59.844Z,94.60
2023-12-14T03:21:32.166Z,94.33
2023-12-14T03:24:03.900Z,94.27
2023-12-14T03:26:35.169Z,94.33
2023-12-14T03:29:05.003Z,94.36
2023-12-14T03:31:36.436Z,94.36
2023-12-14T03:34:07.717Z,94.05
2023-12-14T03:36:39.124Z,94.48
2023-12-14T03:39:10.492Z,94.77
2023-12-14T03:41:41.645Z,94.76
2023-12-14T03:44:12.945Z,94.85
2023-12-14T03:46:44.331Z,94.53
2023-12-14T03:49:16.025Z,94.66
2023-12-14T03:51:47.538Z,94.59
2023-12-14T03:54:17.033Z,94.42
2023-12-14T03:56:48.774Z,94.26
2023-12-14T03:59:19.965Z,94.57
2023-12-14T04:01:51.403Z,94.83
2023-12-14T04:04:22.520Z,94.34
2023-12-14T04:06:53.797Z,94.38
2023-12-14T04:09:25.173Z,94.31
2023-12-14T04:11:54.857Z,94.43
2023-12-14T04:14:25.924Z,94.43
2023-12-14T04:16:58.284Z,94.23
2023-12-14T04:19:29.399Z,94.15
2023-12-14T04:22:00.333Z,94.22
2023-12-14T04:24:33.502Z,94.09
2023-12-14T04:27:03.213Z,94.13
2023-12-14T04:29:34.998Z,94.20
2023-12-14T04:32:07.116Z,94.27
2023-12-14T04:34:38.327Z,94.62
2023-12-14T04:37:09.406Z,94.71
2023-12-14T04:39:40.633Z,94.73
2023-12-14T04:42:11.922Z,94.58
2023-12-14T04:44:42.966Z,94.66
2023-12-14T04:47:14.196Z,94.39
2023-12-14T04:49:43.766Z,94.45
2023-12-14T04:52:14.979Z,94.41
2023-12-14T04:54:46.521Z,94.38
2023-12-14T04:57:17.663Z,94.43
2023-12-14T04:59:47.485Z,94.36
2023-12-14T05:02:18.677Z,94.35
2023-12-14T05:04:49.964Z,94.27
2023-12-14T05:07:21.424Z,94.46
2023-12-14T05:09:52.590Z,94.65
2023-12-14T05:12:25.239Z,94.63
2023-12-14T05:14:56.639Z,94.51
2023-12-14T05:17:26.152Z,94.66
2023-12-14T05:19:57.397Z,94.81
2023-12-14T05:22:28.991Z,94.97
2023-12-14T05:25:00.330Z,94.95
2023-12-14T05:27:33.795Z,95.03
2023-12-14T05:30:05.180Z,95.07
2023-12-14T05:32:35.193Z,95.05
2023-12-14T05:35:08.324Z,94.82
2023-12-14T05:37:40.500Z,94.79
2023-12-14T05:40:13.941Z,94.68
2023-12-14T05:42:45.272Z,94.46
2023-12-14T05:45:16.514Z,94.55
2023-12-14T05:47:47.959Z,94.76
2023-12-14T05:50:23.269Z,94.58
2023-12-14T05:52:54.529Z,94.60
2023-12-14T05:55:25.523Z,94.51
2023-12-14T05:57:57.685Z,94.50
2023-12-14T06:00:28.878Z,94.54
2023-12-14T06:03:00.046Z,94.52
2023-12-14T06:05:32.560Z,94.02
2023-12-14T06:08:04.240Z,93.65
2023-12-14T06:10:35.406Z,93.67
2023-12-14T06:13:07.002Z,94.21
2023-12-14T06:15:38.041Z,94.47
2023-12-14T06:18:09.087Z,94.34
2023-12-14T06:20:40.211Z,94.23
2023-12-14T06:23:11.708Z,94.54
2023-12-14T06:25:42.830Z,94.48
2023-12-14T06:28:14.538Z,94.33
2023-12-14T06:30:45.733Z,94.08
2023-12-14T06:33:17.112Z,94.14
2023-12-14T06:35:46.684Z,94.35
2023-12-14T06:38:17.938Z,94.22
2023-12-14T06:40:49.573Z,94.01
2023-12-14T06:43:19.094Z,94.17
2023-12-14T06:45:50.273Z,94.19
2023-12-14T06:48:22.426Z,94.13
2023-12-14T06:50:56.101Z,93.94
2023-12-14T06:53:27.430Z,93.90
2023-12-14T06:55:57.036Z,93.92
2023-12-14T06:58:28.624Z,94.02
2023-12-14T07:01:00.022Z,94.04
2023-12-14T07:03:32.197Z,93.98
2023-12-14T07:06:03.489Z,94.05
2023-12-14T07:08:33.573Z,94.01
2023-12-14T07:11:04.820Z,94.05
2023-12-14T07:13:34.347Z,93.88
2023-12-14T07:16:09.226Z,94.03
2023-12-14T07:18:41.599Z,94.18
2023-12-14T07:21:12.802Z,94.19
2023-12-14T07:23:44.139Z,94.32
2023-12-14T07:26:15.168Z,94.09
2023-12-14T07:28:46.304Z,93.93
2023-12-14T07:31:17.345Z,93.85
2023-12-14T07:33:49.267Z,93.84
2023-12-14T07:36:20.429Z,93.99
2023-12-14T07:38:53.858Z,94.08
2023-12-14T07:41:30.668Z,94.02
2023-12-14T07:44:05.378Z,94.27
2023-12-14T07:46:40.772Z,94.34
2023-12-14T07:49:12.264Z,94.27
2023-12-14T07:51:43.374Z,94.45
2023-12-14T07:54:13.065Z,94.34
2023-12-14T07:56:44.098Z,94.34
2023-12-14T07:59:15.536Z,94.46
2023-12-14T08:01:45.233Z,94.30
2023-12-14T08:04:16.339Z,94.42
2023-12-14T08:06:47.665Z,94.30
2023-12-14T08:09:18.747Z,94.37
2023-12-14T08:11:49.686Z,94.38
2023-12-14T08:14:21.166Z,94.45
2023-12-14T08:16:53.186Z,94.54
2023-12-14T08:19:24.210Z,94.62
2023-12-14T08:21:53.916Z,94.83
2023-12-14T08:24:24.937Z,94.73
2023-12-14T08:26:56.106Z,94.72
2023-12-14T08:29:27.239Z,94.64
2023-12-14T08:32:00.161Z,94.78
2023-12-14T08:34:33.435Z,94.85
2023-12-14T08:37:06.297Z,95.18
2023-12-14T08:39:37.571Z,95.32
2023-12-14T08:42:09.249Z,95.40
2023-12-14T08:44:42.466Z,95.38
2023-12-14T08:47:13.810Z,95.44
2023-12-14T08:49:44.924Z,95.52
2023-12-14T08:52:16.081Z,95.55
2023-12-14T08:54:47.467Z,95.27
2023-12-14T08:57:18.537Z,95.29
2023-12-14T08:59:49.794Z,95.31
2023-12-14T09:02:19.425Z,95.22
2023-12-14T09:04:50.713Z,95.22
2023-12-14T09:07:20.236Z,95.16
2023-12-14T09:09:51.322Z,95.05
2023-12-14T09:12:20.929Z,95.26
2023-12-14T09:14:51.991Z,95.45
2023-12-14T09:17:23.346Z,95.58
2023-12-14T09:19:54.534Z,95.54
2023-12-14T09:22:25.621Z,95.55
2023-12-14T09:24:56.747Z,95.57
2023-12-14T09:27:28.221Z,95.42
2023-12-14T09:29:57.932Z,95.41
2023-12-14T09:32:29.169Z,95.50
2023-12-14T09:34:58.827Z,95.45
2023-12-14T09:37:28.585Z,95.31
2023-12-14T09:39:59.976Z,95.24
2023-12-14T09:42:41.043Z,95.21
2023-12-14T09:45:13.339Z,95.27
2023-12-14T09:47:46.919Z,95.12
2023-12-14T09:50:18.184Z,94.87
2023-12-14T09:52:50.470Z,94.95
2023-12-14T09:55:22.282Z,94.93
2023-12-14T09:57:51.745Z,94.98
2023-12-14T10:03:29.736Z,95.27
2023-12-14T10:06:03.629Z,95.33
2023-12-14T10:08:35.351Z,95.32
2023-12-14T10:11:16.798Z,95.15
2023-12-14T10:13:48.125Z,95.06
2023-12-14T10:16:31.474Z,94.97
2023-12-14T10:19:03.144Z,94.89
2023-12-14T10:21:34.231Z,94.95
2023-12-14T10:24:03.846Z,94.87
2023-12-14T10:26:35.188Z,94.88
2023-12-14T10:29:05.740Z,94.92
2023-12-14T10:31:39.059Z,94.93
2023-12-14T10:34:10.165Z,94.73
2023-12-14T10:36:41.614Z,94.71
2023-12-14T10:39:17.358Z,94.61
2023-12-14T10:41:54.658Z,94.52
2023-12-14T10:44:48.728Z,94.46
2023-12-14T10:47:22.982Z,94.37
2023-12-14T10:49:56.707Z,94.27
2023-12-14T10:52:29.537Z,94.36
2023-12-14T10:55:07.098Z,94.54
2023-12-14T10:57:40.841Z,94.65
2023-12-14T11:00:13.718Z,94.75
2023-12-14T11:02:47.678Z,94.84
2023-12-14T11:05:24.503Z,94.86
2023-12-14T11:07:58.787Z,94.95
2023-12-14T11:10:38.861Z,95.00
2023-12-14T11:13:13.964Z,94.93
2023-12-14T11:15:51.442Z,95.05
2023-12-14T11:18:29.912Z,95.02
2023-12-14T11:21:03.073Z,94.85
2023-12-14T11:23:40.445Z,94.85
2023-12-14T11:26:13.242Z,94.89
2023-12-14T11:28:44.796Z,94.88
2023-12-14T11:31:16.654Z,94.88
2023-12-14T11:33:49.100Z,94.74
2023-12-14T11:36:20.749Z,94.51
2023-12-14T11:38:55.850Z,94.48
2023-12-14T11:41:29.069Z,94.60
2023-12-14T11:44:00.129Z,94.66
2023-12-14T11:46:33.704Z,94.37
2023-12-14T11:49:05.461Z,94.40
2023-12-14T11:51:38.302Z,94.33
2023-12-14T11:54:10.199Z,93.95
2023-12-14T11:56:41.250Z,93.36
2023-12-14T11:59:16.732Z,93.04
2023-12-14T12:02:00.024Z,93.18
2023-12-14T12:04:32.351Z,92.75
2023-12-14T12:07:05.869Z,92.27
2023-12-14T12:09:39.522Z,92.02
2023-12-14T12:12:12.183Z,92.05
2023-12-14T12:14:44.117Z,92.02
2023-12-14T12:17:15.737Z,91.52
2023-12-14T12:19:46.957Z,91.04
2023-12-14T12:22:18.148Z,90.84
2023-12-14T12:24:49.349Z,90.97
2023-12-14T12:27:24.301Z,90.76
2023-12-14T12:29:55.588Z,90.73
2023-12-14T12:32:26.754Z,90.36
2023-12-14T12:34:58.530Z,90.41
2023-12-14T12:37:29.752Z,90.63
2023-12-14T12:40:01.030Z,90.71
2023-12-14T12:42:33.552Z,90.42
2023-12-14T12:45:05.716Z,90.19
2023-12-14T12:47:37.169Z,90.15
2023-12-14T12:50:10.761Z,90.15
2023-12-14T12:52:43.576Z,90.17
2023-12-14T12:55:14.958Z,90.05
2023-12-14T12:57:46.202Z,90.10
2023-12-14T13:00:16.578Z,90.19
2023-12-14T13:02:48.640Z,90.03
2023-12-14T13:05:21.293Z,90.35
2023-12-14T13:07:52.660Z,90.02
2023-12-14T13:10:31.578Z,90.37
2023-12-14T13:13:05.299Z,90.44
2023-12-14T13:15:36.529Z,90.48
2023-12-14T13:18:07.767Z,90.34
2023-12-14T13:20:39.305Z,90.21
2023-12-14T13:23:10.582Z,90.09
2023-12-14T13:25:42.954Z,90.10
2023-12-14T13:28:17.194Z,89.91
2023-12-14T13:30:49.172Z,90.15
2023-12-14T13:33:20.381Z,90.31
2023-12-14T13:35:51.603Z,90.40
2023-12-14T13:38:22.608Z,90.32
2023-12-14T13:40:53.983Z,90.15
2023-12-14T13:43:25.026Z,90.18
2023-12-14T13:46:09.552Z,90.35
2023-12-14T13:48:48.492Z,90.55
2023-12-14T13:51:19.830Z,90.60
2023-12-14T13:53:51.065Z,90.57
2023-12-14T13:56:22.338Z,90.46
2023-12-14T13:58:53.917Z,90.53
2023-12-14T14:01:25.920Z,90.67
2023-12-14T14:03:57.132Z,90.85
2023-12-14T14:06:28.347Z,91.03
2023-12-14T14:08:59.511Z,90.98
2023-12-14T14:11:30.858Z,91.00
2023-12-14T14:14:02.325Z,91.11
2023-12-14T14:16:33.562Z,91.07
2023-12-14T14:19:03.144Z,91.01
2023-12-14T14:21:34.507Z,91.11
2023-12-14T14:24:06.373Z,91.18
2023-12-14T14:26:38.024Z,91.27
2023-12-14T14:29:12.346Z,91.35
2023-12-14T14:31:43.593Z,91.41
2023-12-14T14:34:13.080Z,91.51
2023-12-14T14:36:45.867Z,91.66
2023-12-14T14:39:19.538Z,91.68
2023-12-14T14:41:50.625Z,91.80
2023-12-14T14:44:22.147Z,91.70
2023-12-14T14:46:53.635Z,91.70
2023-12-14T14:49:24.690Z,91.78
2023-12-14T14:51:55.783Z,91.69
2023-12-14T14:54:27.524Z,91.72
2023-12-14T14:56:56.968Z,91.69
2023-12-14T14:59:31.393Z,91.79
2023-12-14T15:02:03.138Z,91.87
2023-12-14T15:04:34.618Z,91.91
2023-12-14T15:07:05.898Z,91.96
2023-12-14T15:09:37.038Z,91.93
2023-12-14T15:12:08.670Z,91.97
2023-12-14T15:14:40.024Z,92.09
2023-12-14T15:17:11.371Z,92.04
2023-12-14T15:19:40.811Z,92.09
2023-12-14T15:22:12.115Z,92.10
2023-12-14T15:24:43.353Z,92.06
2023-12-14T15:27:15.886Z,92.16
2023-12-14T15:29:47.501Z,92.13
2023-12-14T15:32:18.699Z,92.30
2023-12-14T15:34:50.576Z,92.28
2023-12-14T15:37:21.987Z,92.32
2023-12-14T15:39:54.781Z,92.30
2023-12-14T15:42:25.821Z,92.47
2023-12-14T15:44:57.341Z,92.49
2023-12-14T15:47:26.831Z,92.43
2023-12-14T15:49:58.112Z,92.44
2023-12-14T15:52:29.482Z,92.57
2023-12-14T15:55:01.452Z,92.58
2023-12-14T15:57:34.862Z,92.56
2023-12-14T16:00:04.570Z,92.49
2023-12-14T16:02:35.823Z,92.50
2023-12-14T16:05:09.330Z,92.59
2023-12-14T16:07:40.848Z,92.52
2023-12-14T16:10:12.597Z,92.49
2023-12-14T16:12:43.944Z,92.49
2023-12-14T16:15:15.217Z,92.37
2023-12-14T16:17:46.485Z,92.32
2023-12-14T16:20:19.585Z,92.25
2023-12-14T16:22:52.213Z,92.08
2023-12-14T16:25:23.689Z,92.03
2023-12-14T16:27:53.572Z,91.97
2023-12-14T16:30:24.717Z,91.98
2023-12-14T16:32:55.797Z,92.05
2023-12-14T16:35:26.981Z,92.03
2023-12-14T16:37:59.386Z,91.98
2023-12-14T16:40:30.455Z,91.93
2023-12-14T16:43:01.495Z,91.99
2023-12-14T16:45:31.170Z,91.88
2023-12-14T16:48:03.186Z,91.87
2023-12-14T16:50:35.415Z,91.94
2023-12-14T16:53:11.320Z,91.94
2023-12-14T16:55:42.974Z,91.84
2023-12-14T16:58:12.723Z,91.87
2023-12-14T17:00:43.882Z,91.98
2023-12-14T17:03:13.589Z,91.79
2023-12-14T17:05:45.021Z,91.92
2023-12-14T17:08:16.772Z,91.83
2023-12-14T17:10:48.781Z,91.66
2023-12-14T17:13:20.054Z,91.67
2023-12-14T17:15:51.301Z,91.65
2023-12-14T17:18:20.870Z,91.70
2023-12-14T17:20:50.782Z,91.71
2023-12-14T17:23:22.071Z,91.79
2023-12-14T17:25:53.261Z,91.69
2023-12-14T17:28:24.868Z,91.65
2023-12-14T17:30:56.003Z,91.65
2023-12-14T17:33:27.152Z,91.76
2023-12-14T17:35:58.544Z,91.73
2023-12-14T17:38:29.667Z,91.68
2023-12-14T17:41:03.496Z,91.69
2023-12-14T17:43:36.070Z,91.61
2023-12-14T17:46:07.667Z,91.50
2023-12-14T17:48:38.847Z,91.50
2023-12-14T17:51:09.132Z,91.54
2023-12-14T17:53:41.717Z,91.56
2023-12-14T17:56:13.290Z,91.66
2023-12-14T17:58:46.921Z,91.59
2023-12-14T18:01:18.721Z,91.63
2023-12-14T18:03:50.454Z,91.68
2023-12-14T18:06:21.591Z,91.64
2023-12-14T18:08:53.554Z,91.74
2023-12-14T18:11:24.825Z,91.74
2023-12-14T18:13:56.379Z,91.69
2023-12-14T18:16:27.588Z,91.78
2023-12-14T18:18:58.860Z,91.82
2023-12-14T18:21:29.961Z,91.92
2023-12-14T18:24:01.401Z,91.87
2023-12-14T18:26:33.784Z,91.92
2023-12-14T18:29:04.937Z,91.90
2023-12-14T18:31:35.942Z,91.80
2023-12-14T18:34:07.894Z,91.80
2023-12-14T18:36:39.307Z,91.76
2023-12-14T18:39:11.996Z,91.78
2023-12-14T18:41:43.048Z,91.79
2023-12-14T18:44:14.309Z,91.73
2023-12-14T18:46:45.867Z,91.71
2023-12-14T18:49:18.004Z,91.56
2023-12-14T18:51:52.128Z,91.57
2023-12-14T18:54:21.904Z,91.64
2023-12-14T18:56:53.233Z,91.64
2023-12-14T18:59:24.869Z,91.50
2023-12-14T19:01:56.112Z,91.65
2023-12-14T19:04:27.380Z,91.42
2023-12-14T19:06:58.432Z,91.51
2023-12-14T19:09:29.494Z,91.36
2023-12-14T19:12:00.671Z,91.10
2023-12-14T19:14:33.236Z,90.91
2023-12-14T19:17:05.132Z,90.80
2023-12-14T19:19:36.605Z,90.87
2023-12-14T19:22:07.817Z,90.81
2023-12-14T19:24:37.245Z,90.82
2023-12-14T19:27:08.650Z,90.71
2023-12-14T19:29:40.838Z,90.52
2023-12-14T19:32:12.278Z,90.33
2023-12-14T19:34:43.509Z,90.19
2023-12-14T19:37:13.125Z,90.04
2023-12-14T19:39:44.144Z,89.67
2023-12-14T19:42:15.124Z,89.71
2023-12-14T19:44:44.886Z,89.91
2023-12-14T19:47:17.786Z,89.95
2023-12-14T19:49:48.952Z,89.97
2023-12-14T19:52:20.266Z,90.06
2023-12-14T19:54:51.664Z,90.12
2023-12-14T19:57:21.276Z,90.05
2023-12-14T19:59:52.488Z,89.94
2023-12-14T20:02:22.136Z,90.03
2023-12-14T20:04:53.861Z,89.90
2023-12-14T20:07:26.726Z,89.98
2023-12-14T20:10:03.136Z,90.14
2023-12-14T20:12:36.062Z,90.09
2023-12-14T20:15:08.662Z,90.06
2023-12-14T20:17:39.969Z,90.21
2023-12-14T20:20:12.647Z,90.29
2023-12-14T20:22:44.096Z,90.41
2023-12-14T20:25:15.216Z,90.41
2023-12-14T20:27:47.450Z,90.61
2023-12-14T20:30:18.770Z,90.70
2023-12-14T20:32:50.817Z,90.68
2023-12-14T20:35:22.127Z,90.91
2023-12-14T20:37:53.278Z,90.88
2023-12-14T20:40:27.300Z,90.96
2023-12-14T20:42:58.415Z,91.04
2023-12-14T20:45:29.937Z,91.18
2023-12-14T20:48:01.078Z,91.26
2023-12-14T20:50:35.353Z,91.33
2023-12-14T20:53:06.536Z,91.33
2023-12-14T20:55:37.643Z,91.29
2023-12-14T20:58:08.851Z,91.33
2023-12-14T21:00:38.435Z,91.28
2023-12-14T21:03:09.580Z,91.49
2023-12-14T21:05:47.791Z,91.51
2023-12-14T21:08:20.208Z,91.59
2023-12-14T21:10:52.367Z,91.52
2023-12-14T21:13:23.674Z,91.57
2023-12-14T21:15:54.727Z,91.63
2023-12-14T21:18:25.951Z,91.51
2023-12-14T21:20:57.176Z,91.49
2023-12-14T21:23:28.346Z,91.70
2023-12-14T21:26:05.723Z,91.79
2023-12-14T21:28:38.341Z,91.72
2023-12-14T21:31:09.949Z,91.94
2023-12-14T21:33:41.134Z,91.90
2023-12-14T21:36:13.533Z,92.06
2023-12-14T21:38:44.766Z,92.09
2023-12-14T21:41:16.149Z,92.21
2023-12-14T21:43:45.880Z,92.31
2023-12-14T21:46:17.430Z,92.36
2023-12-14T21:48:48.593Z,92.44
2023-12-14T21:51:19.679Z,92.35
2023-12-14T21:53:50.714Z,92.27
2023-12-14T21:56:21.742Z,92.31
2023-12-14T21:58:52.711Z,92.43
2023-12-14T22:01:22.351Z,92.42
2023-12-14T22:03:53.662Z,92.34
2023-12-14T22:06:25.088Z,92.40
2023-12-14T22:08:54.751Z,92.54
2023-12-14T22:11:26.600Z,92.68
2023-12-14T22:13:57.947Z,92.75
2023-12-14T22:16:27.542Z,92.73
2023-12-14T22:18:58.996Z,92.73
2023-12-14T22:21:30.481Z,92.57
2023-12-14T22:24:01.696Z,92.67
2023-12-14T22:26:33.861Z,92.64
2023-12-14T22:29:05.827Z,92.61
2023-12-14T22:31:37.174Z,92.69
2023-12-14T22:34:10.125Z,92.68
2023-12-14T22:36:42.296Z,92.76
2023-12-14T22:39:13.793Z,92.69
2023-12-14T22:41:44.926Z,92.63
2023-12-14T22:44:16.490Z,92.65
2023-12-14T22:46:47.988Z,92.44
2023-12-14T22:49:19.113Z,92.42
2023-12-14T22:51:50.385Z,92.48
2023-12-14T22:54:21.476Z,92.59
2023-12-14T22:56:51.046Z,92.57
2023-12-14T22:59:22.184Z,92.57
2023-12-14T23:01:53.619Z,92.66
2023-12-14T23:04:23.215Z,92.68
2023-12-14T23:06:54.395Z,92.66
2023-12-14T23:09:24.403Z,92.68
2023-12-14T23:11:54.069Z,92.64
2023-12-14T23:14:25.730Z,92.70
2023-12-14T23:16:58.521Z,92.79
2023-12-14T23:19:29.794Z,92.63
2023-12-14T23:22:00.710Z,92.55
2023-12-14T23:24:32.475Z,92.44
2023-12-14T23:27:04.786Z,92.47
2023-12-14T23:29:36.011Z,92.50
2023-12-14T23:32:06.322Z,92.58
2023-12-14T23:34:37.450Z,92.72
2023-12-14T23:37:08.565Z,92.90
2023-12-14T23:39:39.687Z,93.07
2023-12-14T23:42:09.419Z,93.07
2023-12-14T23:44:40.692Z,93.32
2023-12-14T23:47:10.937Z,93.35
2023-12-14T23:49:42.068Z,93.29
2023-12-14T23:52:11.688Z,93.42
2023-12-14T23:54:42.901Z,93.55
2023-12-14T23:57:14.217Z,93.37
2023-12-14T23:59:45.626Z,93.42
